Time;durP1;ratioP1;P1;durP2;ratioP2;P2;SDS_P1;SDS_P2;PMS_P1;PMS_P2;Temp;Humidity;BMP_temperature;BMP_pressure;BME280_temperature;BME280_humidity;BME280_pressure;Samples;Min_cycle;Max_cycle;Signal;HPM_P1;HPM_P2
2023/09/19 00:00:51;;;;;;;20.98;5.85;;;;;;;-142.57;100.00;115900.28;5024963;28;20285;-88
2023/09/19 00:03:17;;;;;;;23.17;6.07;;;;;;;-142.57;100.00;115900.28;5006121;28;20100;-86
2023/09/19 00:05:44;;;;;;;28.65;7.05;;;;;;;-142.57;100.00;115900.28;5012313;28;20415;-90
2023/09/19 00:08:09;;;;;;;26.98;6.65;;;;;;;-142.57;100.00;115900.28;4996661;28;20445;-86
2023/09/19 00:10:35;;;;;;;23.60;6.75;;;;;;;-142.57;100.00;115900.28;4996930;28;20045;-86
2023/09/19 00:13:08;;;;;;;27.58;7.53;;;;;;;-142.57;100.00;115900.28;5011419;28;20050;-87
2023/09/19 00:15:50;;;;;;;25.63;6.82;;;;;;;-142.57;100.00;115900.28;4979404;28;20221;-85
2023/09/19 00:18:20;;;;;;;26.15;6.68;;;;;;;-142.57;100.00;115900.28;5012601;28;20035;-87
2023/09/19 00:20:47;;;;;;;21.67;7.03;;;;;;;-142.57;100.00;115900.28;4996497;28;20430;-88
2023/09/19 00:23:13;;;;;;;25.48;6.13;;;;;;;-142.57;100.00;115900.28;4996398;28;20085;-86
2023/09/19 00:25:40;;;;;;;26.88;7.25;;;;;;;-142.57;100.00;115900.28;5011239;28;20034;-86
2023/09/19 00:28:07;;;;;;;22.10;6.60;;;;;;;-142.57;100.00;115900.28;4996467;28;20038;-86
2023/09/19 00:30:35;;;;;;;37.90;6.85;;;;;;;-142.57;100.00;115900.28;4996879;28;20034;-87
2023/09/19 00:33:05;;;;;;;24.58;6.75;;;;;;;-142.57;100.00;115900.28;4996804;28;20117;-87
2023/09/19 00:35:31;;;;;;;24.13;6.90;;;;;;;-142.57;100.00;115900.28;4995881;28;20536;-87
2023/09/19 00:37:56;;;;;;;28.33;6.03;;;;;;;-142.57;100.00;115900.28;4997638;28;20121;-86
2023/09/19 00:40:22;;;;;;;28.08;6.50;;;;;;;-142.57;100.00;115900.28;4997091;28;20504;-87
2023/09/19 00:42:49;;;;;;;25.13;6.47;;;;;;;-142.57;100.00;115900.28;5012372;28;20050;-88
2023/09/19 00:45:16;;;;;;;25.52;6.90;;;;;;;-142.57;100.00;115900.28;4998636;28;20081;-86
2023/09/19 00:47:51;;;;;;;26.83;6.65;;;;;;;-142.57;100.00;115900.28;4998370;28;20022;-90
2023/09/19 00:50:19;;;;;;;31.80;6.85;;;;;;;-142.57;100.00;115900.28;4998620;28;20034;-86
2023/09/19 00:52:49;;;;;;;21.42;6.68;;;;;;;-142.57;100.00;115900.28;4997229;28;20038;-87
2023/09/19 00:55:19;;;;;;;23.13;6.55;;;;;;;-142.57;100.00;115900.28;5013481;28;20030;-89
2023/09/19 00:57:47;;;;;;;20.40;6.70;;;;;;;-142.57;100.00;115900.28;4996789;28;20053;-89
2023/09/19 01:00:18;;;;;;;24.90;6.38;;;;;;;-142.57;100.00;115900.28;5000942;28;20033;-86
2023/09/19 01:02:45;;;;;;;18.00;6.13;;;;;;;-142.57;100.00;115900.28;5004624;28;20126;-90
2023/09/19 01:05:14;;;;;;;25.17;5.90;;;;;;;-142.57;100.00;115900.28;5021408;28;20043;-88
2023/09/19 01:07:44;;;;;;;23.80;6.68;;;;;;;-142.57;100.00;115900.28;5002451;28;20046;-85
2023/09/19 01:10:16;;;;;;;29.85;6.68;;;;;;;-142.57;100.00;115900.28;4998270;28;20457;-86
2023/09/19 01:13:13;;;;;;;25.35;6.97;;;;;;;-142.57;100.00;115900.28;4999193;28;20073;-87
2023/09/19 01:15:54;;;;;;;19.83;6.90;;;;;;;-142.57;100.00;115900.28;5000862;28;20046;-87
2023/09/19 01:18:20;;;;;;;31.07;6.80;;;;;;;-142.57;100.00;115900.28;5017563;28;20027;-86
2023/09/19 01:20:55;;;;;;;26.33;7.15;;;;;;;-142.57;100.00;115900.28;5005631;28;20438;-86
2023/09/19 01:23:42;;;;;;;30.35;6.95;;;;;;;-142.57;100.00;115900.28;5006337;28;20129;-87
2023/09/19 01:26:40;;;;;;;26.70;6.50;;;;;;;-142.57;100.00;115900.28;4999887;28;20401;-85
2023/09/19 01:29:43;;;;;;;29.27;6.75;;;;;;;-142.57;100.00;115900.28;4995647;28;20134;-87
2023/09/19 01:32:14;;;;;;;29.40;7.35;;;;;;;-142.57;100.00;115900.28;5013584;28;20038;-87
2023/09/19 01:34:48;;;;;;;28.38;7.38;;;;;;;-142.57;100.00;115900.28;4997441;28;20457;-86
2023/09/19 01:37:20;;;;;;;27.67;7.10;;;;;;;-142.57;100.00;115900.28;4981323;28;20042;-87
2023/09/19 01:39:48;;;;;;;31.58;6.68;;;;;;;-142.57;100.00;115900.28;4998741;28;20034;-88
2023/09/19 01:42:26;;;;;;;29.20;6.60;;;;;;;-142.57;100.00;115900.28;4998890;28;20069;-88
2023/09/19 01:45:07;;;;;;;28.77;6.47;;;;;;;-142.57;100.00;115900.28;4998838;28;20081;-85
2023/09/19 01:47:56;;;;;;;24.13;6.88;;;;;;;-142.57;100.00;115900.28;4998703;28;20137;-85
2023/09/19 01:50:25;;;;;;;30.00;7.70;;;;;;;-142.57;100.00;115900.28;5015856;28;20034;-85
2023/09/19 01:53:15;;;;;;;28.38;7.22;;;;;;;-142.57;100.00;115900.28;5000428;28;20106;-87
2023/09/19 01:55:51;;;;;;;27.73;7.30;;;;;;;-142.57;100.00;115900.28;5000533;28;20117;-87
2023/09/19 01:58:42;;;;;;;27.83;7.55;;;;;;;-142.57;100.00;115900.28;5016144;28;20035;-87
2023/09/19 02:01:14;;;;;;;24.30;7.45;;;;;;;-142.57;100.00;115900.28;4999084;28;20038;-89
2023/09/19 02:03:41;;;;;;;32.97;8.27;;;;;;;-142.57;100.00;115900.28;4998631;28;20039;-88
2023/09/19 02:06:11;;;;;;;33.92;8.10;;;;;;;-142.57;100.00;115900.28;4998856;28;20065;-89
2023/09/19 02:08:37;;;;;;;27.48;7.82;;;;;;;-142.57;100.00;115900.28;5001076;28;20037;-87
2023/09/19 02:11:03;;;;;;;29.02;7.38;;;;;;;-142.57;100.00;115900.28;4997543;28;20128;-88
2023/09/19 02:13:31;;;;;;;26.23;7.35;;;;;;;-142.57;100.00;115900.28;4998220;28;20030;-87
2023/09/19 02:15:57;;;;;;;24.92;6.78;;;;;;;-142.57;100.00;115900.28;5014820;28;20042;-88
2023/09/19 02:18:23;;;;;;;26.83;7.00;;;;;;;-142.57;100.00;115900.28;4999415;28;20110;-89
2023/09/19 02:20:48;;;;;;;24.27;6.85;;;;;;;-142.57;100.00;115900.28;4999264;28;20081;-89
2023/09/19 02:23:15;;;;;;;23.98;7.82;;;;;;;-142.57;100.00;115900.28;5015573;28;20048;-89
2023/09/19 02:25:41;;;;;;;30.33;7.13;;;;;;;-142.57;100.00;115900.28;5001707;28;20026;-86
2023/09/19 02:28:09;;;;;;;24.88;7.50;;;;;;;-142.57;100.00;115900.28;4999664;28;20662;-90
2023/09/19 02:30:36;;;;;;;26.75;7.68;;;;;;;-142.57;100.00;115900.28;5000391;28;20113;-87
2023/09/19 02:33:01;;;;;;;18.48;6.35;;;;;;;-142.57;100.00;115900.28;5000086;28;20042;-87
2023/09/19 02:35:28;;;;;;;24.17;6.28;;;;;;;-142.57;100.00;115900.28;4999203;28;20418;-86
2023/09/19 02:37:54;;;;;;;26.40;7.15;;;;;;;-142.57;100.00;115900.28;5009168;28;20035;-84
2023/09/19 02:40:19;;;;;;;27.98;7.97;;;;;;;-142.57;100.00;115900.28;5015039;28;20070;-87
2023/09/19 02:42:48;;;;;;;24.40;7.68;;;;;;;-142.57;100.00;115900.28;5000686;28;20045;-85
2023/09/19 02:45:19;;;;;;;20.92;7.25;;;;;;;-142.57;100.00;115900.28;4999508;28;20393;-86
2023/09/19 02:47:48;;;;;;;22.98;6.57;;;;;;;-142.57;100.00;115900.28;4998739;28;20034;-88
2023/09/19 02:50:17;;;;;;;21.88;7.38;;;;;;;-142.57;100.00;115900.28;4996850;28;20061;-87
2023/09/19 02:52:44;;;;;;;27.83;7.07;;;;;;;-142.57;100.00;115900.28;5013939;28;20045;-87
2023/09/19 02:55:17;;;;;;;27.02;8.00;;;;;;;-142.57;100.00;115900.28;4997847;28;20047;-88
2023/09/19 02:57:50;;;;;;;25.23;7.65;;;;;;;-142.57;100.00;115900.28;4998047;28;20031;-89
2023/09/19 03:00:21;;;;;;;27.48;7.47;;;;;;;-142.57;100.00;115900.28;4995607;28;20566;-88
2023/09/19 03:02:50;;;;;;;21.00;7.07;;;;;;;-142.57;100.00;115900.28;5012897;28;20038;-88
2023/09/19 03:05:16;;;;;;;29.25;7.63;;;;;;;-142.57;100.00;115900.28;4996070;28;20026;-87
2023/09/19 03:07:43;;;;;;;21.08;6.50;;;;;;;-142.57;100.00;115900.28;4997798;28;20030;-87
2023/09/19 03:10:09;;;;;;;21.23;6.82;;;;;;;-142.57;100.00;115900.28;4996891;28;20096;-86
2023/09/19 03:12:35;;;;;;;25.02;6.97;;;;;;;-142.57;100.00;115900.28;4998005;28;20061;-86
2023/09/19 03:15:04;;;;;;;23.33;7.70;;;;;;;-142.57;100.00;115900.28;4998478;28;20046;-87
2023/09/19 03:17:30;;;;;;;26.70;8.07;;;;;;;-142.57;100.00;115900.28;4998102;28;20041;-88
2023/09/19 03:19:57;;;;;;;23.80;8.15;;;;;;;-142.57;100.00;115900.28;5014615;28;20038;-87
2023/09/19 03:22:24;;;;;;;25.98;8.50;;;;;;;-142.57;100.00;115900.28;4998076;28;20567;-87
2023/09/19 03:24:50;;;;;;;25.13;9.52;;;;;;;-142.57;100.00;115900.28;4997831;28;20034;-85
2023/09/19 03:27:16;;;;;;;33.25;10.15;;;;;;;-142.57;100.00;115900.28;5015709;28;20042;-87
2023/09/19 03:29:42;;;;;;;33.67;10.68;;;;;;;-142.57;100.00;115900.28;5013667;28;20038;-84
2023/09/19 03:32:11;;;;;;;30.40;10.15;;;;;;;-142.57;100.00;115900.28;4980776;28;20512;-86
2023/09/19 03:34:41;;;;;;;31.52;11.02;;;;;;;-142.57;100.00;115900.28;4998629;28;20039;-88
2023/09/19 03:37:08;;;;;;;32.85;10.95;;;;;;;-142.57;100.00;115900.28;4995964;28;20039;-88
2023/09/19 03:39:34;;;;;;;27.38;11.35;;;;;;;-142.57;100.00;115900.28;5012430;28;20030;-88
2023/09/19 03:42:02;;;;;;;23.58;10.80;;;;;;;-142.57;100.00;115900.28;4996692;28;20042;-88
2023/09/19 03:44:28;;;;;;;36.97;12.63;;;;;;;-142.57;100.00;115900.28;4998193;28;20078;-89
2023/09/19 03:46:55;;;;;;;38.67;13.43;;;;;;;-142.57;100.00;115900.28;4996407;28;20066;-86
2023/09/19 03:49:21;;;;;;;32.75;12.98;;;;;;;-142.57;100.00;115900.28;4995405;28;20042;-87
2023/09/19 03:51:47;;;;;;;36.97;14.07;;;;;;;-142.57;100.00;115900.28;4996240;28;20030;-87
2023/09/19 03:54:13;;;;;;;43.15;14.98;;;;;;;-142.57;100.00;115900.28;5005059;28;20062;-88
2023/09/19 03:56:38;;;;;;;39.03;15.60;;;;;;;-142.57;100.00;115900.28;5017181;28;20036;-88
2023/09/19 03:59:04;;;;;;;43.58;16.80;;;;;;;-142.57;100.00;115900.28;5017486;28;20046;-88
2023/09/19 04:01:33;;;;;;;44.05;17.23;;;;;;;-142.57;100.00;115900.28;5031896;28;20038;-87
2023/09/19 04:04:07;;;;;;;36.38;17.05;;;;;;;-142.57;100.00;115900.28;5016429;28;20037;-88
2023/09/19 04:06:35;;;;;;;37.72;17.35;;;;;;;-142.57;100.00;115900.28;5007545;28;20034;-87
2023/09/19 04:09:01;;;;;;;39.67;17.83;;;;;;;-142.57;100.00;115900.28;5012435;28;20037;-87
2023/09/19 04:11:27;;;;;;;38.38;16.13;;;;;;;-142.57;100.00;115900.28;4979811;28;20053;-89
2023/09/19 04:13:53;;;;;;;39.70;18.50;;;;;;;-142.57;100.00;115900.28;4995384;28;20541;-86
2023/09/19 04:16:19;;;;;;;37.80;18.00;;;;;;;-142.57;100.00;115900.28;4996639;28;20066;-89
2023/09/19 04:18:45;;;;;;;41.33;17.77;;;;;;;-142.57;100.00;115900.28;4999891;28;20118;-87
2023/09/19 04:21:11;;;;;;;41.70;18.35;;;;;;;-142.57;100.00;115900.28;5000505;28;20105;-88
2023/09/19 04:23:36;;;;;;;43.17;17.63;;;;;;;-142.57;100.00;115900.28;4979072;28;20042;-85
2023/09/19 04:26:04;;;;;;;48.17;19.02;;;;;;;-142.57;100.00;115900.28;4994738;28;20062;-85
2023/09/19 04:28:31;;;;;;;38.40;17.83;;;;;;;-142.57;100.00;115900.28;4979508;28;20042;-90
2023/09/19 04:30:57;;;;;;;34.83;17.70;;;;;;;-142.57;100.00;115900.28;4995771;28;20409;-85
2023/09/19 04:33:25;;;;;;;33.05;16.00;;;;;;;-142.57;100.00;115900.28;4996477;28;20042;-85
2023/09/19 04:35:50;;;;;;;36.50;16.45;;;;;;;-142.57;100.00;115900.28;4999571;28;20129;-85
2023/09/19 04:38:18;;;;;;;39.85;17.38;;;;;;;-142.57;100.00;115900.28;5002592;28;20069;-90
2023/09/19 04:40:47;;;;;;;37.17;16.70;;;;;;;-142.57;100.00;115900.28;5002390;28;20058;-88
2023/09/19 04:43:17;;;;;;;45.13;17.08;;;;;;;-142.57;100.00;115900.28;4998801;28;20487;-88
2023/09/19 04:45:42;;;;;;;36.38;17.02;;;;;;;-142.57;100.00;115900.28;4999757;28;20238;-85
2023/09/19 04:48:11;;;;;;;46.15;17.45;;;;;;;-142.57;100.00;115900.28;4999172;28;20096;-88
2023/09/19 04:50:38;;;;;;;41.63;16.55;;;;;;;-142.57;100.00;115900.28;5014794;28;20477;-85
2023/09/19 04:53:04;;;;;;;38.08;17.60;;;;;;;-142.57;100.00;115900.28;5019037;28;20122;-85
2023/09/19 04:55:30;;;;;;;38.35;16.92;;;;;;;-142.57;100.00;115900.28;5021469;28;20069;-85
2023/09/19 04:57:55;;;;;;;36.17;15.27;;;;;;;-142.57;100.00;115900.28;5018712;28;20030;-84
2023/09/19 05:00:24;;;;;;;41.42;17.60;;;;;;;-142.57;100.00;115900.28;5017022;28;20042;-83
2023/09/19 05:02:53;;;;;;;38.78;16.38;;;;;;;-142.57;100.00;115900.28;5019362;28;20081;-86
2023/09/19 05:05:23;;;;;;;42.25;16.63;;;;;;;-142.57;100.00;115900.28;5019461;28;20034;-87
2023/09/19 05:07:49;;;;;;;38.63;16.25;;;;;;;-142.57;100.00;115900.28;5017633;28;20037;-85
2023/09/19 05:10:18;;;;;;;45.55;16.20;;;;;;;-142.57;100.00;115900.28;5016929;28;20030;-88
2023/09/19 05:12:46;;;;;;;40.58;16.10;;;;;;;-142.57;100.00;115900.28;5016757;28;20050;-89
2023/09/19 05:15:14;;;;;;;44.30;15.75;;;;;;;-142.57;100.00;115900.28;5016613;28;20046;-86
2023/09/19 05:17:40;;;;;;;34.35;15.93;;;;;;;-142.57;100.00;115900.28;5017177;28;20034;-84
2023/09/19 05:20:24;;;;;;;40.42;16.63;;;;;;;-142.57;100.00;115900.28;5023622;28;20037;-86
2023/09/19 05:22:50;;;;;;;40.70;15.57;;;;;;;-142.57;100.00;115900.28;5030909;28;20046;-87
2023/09/19 05:25:18;;;;;;;41.65;15.23;;;;;;;-142.57;100.00;115900.28;5015973;28;20030;-86
2023/09/19 05:27:44;;;;;;;45.78;16.98;;;;;;;-142.57;100.00;115900.28;5017712;28;20492;-86
2023/09/19 05:30:10;;;;;;;36.38;15.05;;;;;;;-142.57;100.00;115900.28;5018267;28;20551;-85
2023/09/19 05:32:36;;;;;;;35.33;14.85;;;;;;;-142.57;100.00;115900.28;5017716;28;20060;-86
2023/09/19 05:35:03;;;;;;;36.92;15.80;;;;;;;-142.57;100.00;115900.28;5017398;28;20476;-86
2023/09/19 05:37:29;;;;;;;37.45;15.57;;;;;;;-142.57;100.00;115900.28;5017797;28;20061;-87
2023/09/19 05:39:55;;;;;;;35.25;15.27;;;;;;;-142.57;100.00;115900.28;5016399;28;20041;-85
2023/09/19 05:42:20;;;;;;;53.05;17.38;;;;;;;-142.57;100.00;115900.28;5017922;28;20041;-87
2023/09/19 05:44:46;;;;;;;40.15;17.92;;;;;;;-142.57;100.00;115900.28;5018837;28;20029;-87
2023/09/19 05:47:12;;;;;;;37.45;17.30;;;;;;;-142.57;100.00;115900.28;5017871;28;20045;-84
2023/09/19 05:49:38;;;;;;;44.97;19.30;;;;;;;-142.57;100.00;115900.28;5016570;28;20030;-86
2023/09/19 05:52:06;;;;;;;41.10;19.25;;;;;;;-142.57;100.00;115900.28;5017704;28;20022;-84
2023/09/19 05:54:33;;;;;;;53.50;18.70;;;;;;;-142.57;100.00;115900.28;5017942;28;20071;-85
2023/09/19 05:56:58;;;;;;;49.03;19.38;;;;;;;-142.57;100.00;115900.28;5017649;28;20049;-86
2023/09/19 05:59:24;;;;;;;52.10;20.77;;;;;;;-142.57;100.00;115900.28;5016855;28;20392;-85
2023/09/19 06:01:49;;;;;;;50.40;20.40;;;;;;;-142.57;100.00;115900.28;5017023;28;20118;-86
2023/09/19 06:04:15;;;;;;;42.00;21.13;;;;;;;-142.57;100.00;115900.28;5015809;28;20540;-86
2023/09/19 06:06:41;;;;;;;44.58;20.05;;;;;;;-142.57;100.00;115900.28;5016944;28;20018;-89
2023/09/19 06:09:09;;;;;;;48.65;19.90;;;;;;;-142.57;100.00;115900.28;5016820;28;20048;-84
2023/09/19 06:11:35;;;;;;;46.95;20.13;;;;;;;-142.57;100.00;115900.28;5018402;28;20091;-84
2023/09/19 06:14:04;;;;;;;48.33;19.67;;;;;;;-142.57;100.00;115900.28;5015577;28;20125;-86
2023/09/19 06:16:33;;;;;;;37.30;16.92;;;;;;;-142.57;100.00;115900.28;5016609;28;20484;-86
2023/09/19 06:18:59;;;;;;;37.50;16.77;;;;;;;-142.57;100.00;115900.28;5017258;28;20121;-84
2023/09/19 06:21:26;;;;;;;37.20;16.60;;;;;;;-142.57;100.00;115900.28;5016311;28;20122;-85
2023/09/19 06:23:53;;;;;;;40.85;15.70;;;;;;;-142.57;100.00;115900.28;5016440;28;20033;-88
2023/09/19 06:26:19;;;;;;;37.03;16.52;;;;;;;-142.57;100.00;115900.28;5016008;28;20033;-83
2023/09/19 06:28:44;;;;;;;42.90;16.85;;;;;;;-142.57;100.00;115900.28;5016024;28;20041;-85
2023/09/19 06:31:10;;;;;;;31.60;14.18;;;;;;;-142.57;100.00;115900.28;5015425;28;20066;-84
2023/09/19 06:33:40;;;;;;;34.45;13.52;;;;;;;-142.57;100.00;115900.28;5016766;28;20052;-86
2023/09/19 06:36:06;;;;;;;22.02;11.45;;;;;;;-142.57;100.00;115900.28;5016018;28;20077;-86
2023/09/19 06:38:34;;;;;;;28.98;12.30;;;;;;;-142.57;100.00;115900.28;5015779;28;20393;-89
2023/09/19 06:41:01;;;;;;;30.70;12.20;;;;;;;-142.57;100.00;115900.28;5020370;28;20026;-84
2023/09/19 06:43:30;;;;;;;33.00;12.43;;;;;;;-142.57;100.00;115900.28;5033567;28;20037;-85
2023/09/19 06:45:57;;;;;;;27.13;11.73;;;;;;;-142.57;100.00;115900.28;5014996;28;20077;-85
2023/09/19 06:48:24;;;;;;;33.63;12.50;;;;;;;-142.57;100.00;115900.28;5015492;28;20029;-88
2023/09/19 06:50:50;;;;;;;29.02;12.88;;;;;;;-142.57;100.00;115900.28;5014218;28;20048;-84
2023/09/19 06:53:17;;;;;;;29.73;13.05;;;;;;;-142.57;100.00;115900.28;5016874;28;20113;-84
2023/09/19 06:55:43;;;;;;;30.63;13.95;;;;;;;-142.57;100.00;115900.28;5020052;28;20109;-84
2023/09/19 06:58:10;;;;;;;30.73;14.18;;;;;;;-142.57;100.00;115900.28;5017625;28;20573;-86
2023/09/19 07:00:37;;;;;;;36.13;14.23;;;;;;;-142.57;100.00;115900.28;5019338;28;20496;-83
2023/09/19 07:03:07;;;;;;;28.73;12.95;;;;;;;-142.57;100.00;115900.28;5008648;28;20094;-84
2023/09/19 07:05:38;;;;;;;24.80;11.35;;;;;;;-142.57;100.00;115900.28;5012991;28;20064;-86
2023/09/19 07:08:09;;;;;;;27.25;12.07;;;;;;;-142.57;100.00;115900.28;5025696;28;20050;-86
2023/09/19 07:10:35;;;;;;;28.05;10.80;;;;;;;-142.57;100.00;115900.28;5023942;28;20037;-86
2023/09/19 07:13:06;;;;;;;24.58;10.77;;;;;;;-142.57;100.00;115900.28;5020202;28;20030;-86
2023/09/19 07:15:46;;;;;;;26.98;10.10;;;;;;;-142.57;100.00;115900.28;5019002;28;20041;-84
2023/09/19 07:18:16;;;;;;;23.63;10.00;;;;;;;-142.57;100.00;115900.28;5016469;28;20061;-86
2023/09/19 07:20:49;;;;;;;25.13;10.20;;;;;;;-142.57;100.00;115900.28;5016257;28;20053;-86
2023/09/19 07:23:23;;;;;;;18.92;9.13;;;;;;;-142.57;100.00;115900.28;5015685;28;20454;-84
2023/09/19 07:25:49;;;;;;;23.95;10.85;;;;;;;-142.57;97.25;115900.28;5015216;28;20117;-86
2023/09/19 07:28:15;;;;;;;34.33;10.85;;;;;;;-142.57;93.42;115900.28;5017081;28;20076;-86
2023/09/19 07:30:41;;;;;;;24.83;10.80;;;;;;;-142.57;96.69;115900.28;5015406;28;20087;-85
2023/09/19 07:33:07;;;;;;;24.08;11.88;;;;;;;-142.57;99.33;115900.28;5016102;28;20465;-83
2023/09/19 07:35:33;;;;;;;23.02;11.52;;;;;;;-142.57;98.75;115900.28;5015036;28;20041;-85
2023/09/19 07:38:01;;;;;;;29.02;12.82;;;;;;;-142.57;100.00;115900.28;5014097;28;20130;-84
2023/09/19 07:40:28;;;;;;;27.77;12.18;;;;;;;-142.57;100.00;115900.28;5014035;28;20114;-83
2023/09/19 07:42:55;;;;;;;27.90;12.73;;;;;;;-142.57;100.00;115900.28;5013559;28;20046;-85
2023/09/19 07:45:20;;;;;;;38.08;13.10;;;;;;;-142.57;100.00;115900.28;5013811;28;20117;-83
2023/09/19 07:47:50;;;;;;;31.90;12.77;;;;;;;-142.57;100.00;115900.28;5013603;28;20057;-87
2023/09/19 07:50:20;;;;;;;27.95;12.70;;;;;;;-142.57;100.00;115900.28;5013927;28;20037;-86
2023/09/19 07:52:47;;;;;;;23.63;13.32;;;;;;;-142.57;98.52;115900.28;5013968;28;20037;-85
2023/09/19 07:55:16;;;;;;;26.50;13.10;;;;;;;-142.57;97.11;115900.28;5013131;28;20397;-85
2023/09/19 07:57:43;;;;;;;29.90;13.63;;;;;;;-142.57;98.38;115900.28;5015937;28;20036;-86
2023/09/19 08:00:11;;;;;;;33.45;14.25;;;;;;;-142.57;96.24;115900.28;5016611;28;20042;-84
2023/09/19 08:02:43;;;;;;;29.10;13.77;;;;;;;-142.57;93.90;115900.28;5011919;28;20029;-86
2023/09/19 08:05:10;;;;;;;29.95;13.45;;;;;;;-142.57;91.36;115900.28;5006238;28;20034;-84
2023/09/19 08:07:40;;;;;;;29.98;13.90;;;;;;;-142.57;91.71;115900.28;4992901;28;20030;-85
2023/09/19 08:10:13;;;;;;;28.10;13.52;;;;;;;-142.57;94.15;115900.28;4993990;28;20057;-88
2023/09/19 08:12:46;;;;;;;28.77;13.80;;;;;;;-142.57;94.57;115900.28;4993842;28;20062;-84
2023/09/19 08:15:17;;;;;;;30.60;13.48;;;;;;;-142.57;96.23;115900.28;4994037;28;20128;-87
2023/09/19 08:17:43;;;;;;;26.15;14.00;;;;;;;-142.57;94.11;115900.28;4994204;28;20339;-85
2023/09/19 08:20:17;;;;;;;28.25;12.80;;;;;;;-142.57;93.48;115900.28;4993922;28;20038;-84
2023/09/19 08:22:54;;;;;;;25.23;11.68;;;;;;;-142.57;90.37;115900.28;4994586;28;20046;-84
2023/09/19 08:25:21;;;;;;;22.35;12.23;;;;;;;-142.57;90.63;115900.28;4993823;28;20060;-85
2023/09/19 08:27:50;;;;;;;24.73;11.40;;;;;;;-142.57;86.26;115900.28;4994572;28;20026;-85
2023/09/19 08:30:23;;;;;;;30.50;11.52;;;;;;;-142.57;89.59;115900.28;4994629;28;20089;-88
2023/09/19 08:32:50;;;;;;;22.90;10.82;;;;;;;-142.57;88.94;115900.28;4994175;28;20039;-83
2023/09/19 08:35:16;;;;;;;24.20;11.75;;;;;;;-142.57;89.06;115900.28;4992612;28;20069;-87
2023/09/19 08:37:47;;;;;;;22.15;11.82;;;;;;;-142.57;87.43;115900.28;4993979;28;20477;-88
2023/09/19 08:40:13;;;;;;;31.25;13.77;;;;;;;-142.57;88.02;115900.28;4992773;28;20509;-85
2023/09/19 08:42:56;;;;;;;27.05;12.27;;;;;;;-142.57;87.06;115900.28;4993725;28;20122;-86
2023/09/19 08:45:24;;;;;;;23.05;11.02;;;;;;;-142.57;83.17;115900.28;4993765;28;20030;-86
2023/09/19 08:48:23;;;;;;;25.50;11.90;;;;;;;-142.57;86.34;115900.28;4993735;28;20485;-86
2023/09/19 08:50:57;;;;;;;25.60;12.00;;;;;;;-142.57;85.98;115900.28;4993456;28;20050;-86
2023/09/19 08:53:30;;;;;;;24.35;11.27;;;;;;;-142.57;80.57;115900.28;5008688;28;20069;-85
2023/09/19 08:55:57;;;;;;;27.58;11.32;;;;;;;-142.57;69.55;115900.28;4993845;28;20450;-88
2023/09/19 08:58:29;;;;;;;26.50;10.40;;;;;;;-142.57;67.37;115900.28;4993348;28;20018;-85
2023/09/19 09:00:56;;;;;;;26.30;11.23;;;;;;;-142.57;69.01;115900.28;4993268;28;20038;-86
2023/09/19 09:03:23;;;;;;;25.52;10.80;;;;;;;-142.57;67.93;115900.28;4993148;28;20046;-83
2023/09/19 09:05:50;;;;;;;31.10;11.48;;;;;;;-142.57;65.97;115900.28;4993483;28;20482;-85
2023/09/19 09:08:20;;;;;;;32.38;11.45;;;;;;;-142.57;67.47;115900.28;5008535;28;20041;-85
2023/09/19 09:10:45;;;;;;;22.83;10.82;;;;;;;-142.57;67.40;115900.28;4993505;28;20034;-86
2023/09/19 09:13:13;;;;;;;23.58;12.15;;;;;;;-142.57;65.89;115900.28;4994065;28;20393;-84
2023/09/19 09:15:41;;;;;;;25.52;12.25;;;;;;;-142.57;64.98;115900.28;4994136;28;20073;-86
2023/09/19 09:18:07;;;;;;;24.65;12.98;;;;;;;-142.57;64.86;115900.28;4994226;28;20393;-84
2023/09/19 09:20:32;;;;;;;30.73;12.43;;;;;;;-142.57;66.65;115900.28;4995716;28;20121;-87
2023/09/19 09:23:03;;;;;;;28.05;13.30;;;;;;;-142.57;66.12;115900.28;4998472;28;20051;-85
2023/09/19 09:25:59;;;;;;;33.67;14.23;;;;;;;-142.57;64.81;115900.28;5017841;28;20030;-87
2023/09/19 09:28:26;;;;;;;28.42;13.80;;;;;;;-142.57;65.17;115900.28;5011768;28;20046;-87
2023/09/19 09:30:52;;;;;;;28.55;13.05;;;;;;;-142.57;64.23;115900.28;4995538;28;20038;-83
2023/09/19 09:33:18;;;;;;;33.78;17.40;;;;;;;-142.57;65.27;115900.28;4996850;28;20054;-88
2023/09/19 09:35:51;;;;;;;33.65;17.77;;;;;;;-142.57;63.44;115900.28;4996954;28;20034;-85
2023/09/19 09:38:25;;;;;;;33.60;18.55;;;;;;;-142.57;63.42;115900.28;4998588;28;20434;-89
2023/09/19 09:41:07;;;;;;;33.78;17.25;;;;;;;-142.57;65.21;115900.28;4996093;28;20064;-87
2023/09/19 09:43:40;;;;;;;29.38;16.13;;;;;;;-142.57;65.21;115900.28;4995481;28;20058;-86
2023/09/19 09:46:58;;;;;;;35.53;16.60;;;;;;;-142.57;63.56;115900.28;4997090;28;20030;-85
2023/09/19 09:49:18;;;;;;;30.52;16.80;;;;;;;-142.57;63.39;115900.28;4989860;28;20054;-83
2023/09/19 09:51:57;;;;;;;40.03;17.05;;;;;;;-142.57;60.89;115900.28;4996689;28;20041;-89
2023/09/19 09:54:23;;;;;;;30.17;15.20;;;;;;;-142.57;58.33;115900.28;4997935;28;20042;-84
2023/09/19 09:56:59;;;;;;;34.47;16.63;;;;;;;-142.57;58.14;115900.28;4997722;28;20496;-83
2023/09/19 09:59:46;;;;;;;34.22;15.10;;;;;;;-142.57;56.13;115900.28;4997318;28;20039;-83
2023/09/19 10:02:14;;;;;;;38.38;15.60;;;;;;;-142.57;55.28;115900.28;4997114;28;20037;-84
2023/09/19 10:04:51;;;;;;;29.98;16.33;;;;;;;-142.57;53.28;115900.28;4996380;28;20618;-86
2023/09/19 10:07:30;;;;;;;32.60;14.07;;;;;;;-142.57;53.07;115900.28;4996790;28;20050;-85
2023/09/19 10:10:06;;;;;;;31.92;14.85;;;;;;;-142.57;52.11;115900.28;5012221;28;20042;-83
2023/09/19 10:12:38;;;;;;;30.08;13.32;;;;;;;-142.57;53.18;115900.28;5002725;28;20034;-83
2023/09/19 10:15:06;;;;;;;37.33;14.40;;;;;;;-142.57;51.55;115900.28;5006946;28;20200;-85
2023/09/19 10:17:35;;;;;;;29.40;13.55;;;;;;;-142.57;49.34;115900.28;4995576;28;20374;-86
2023/09/19 10:20:09;;;;;;;32.22;13.63;;;;;;;-142.57;48.88;115900.28;4996376;28;20056;-86
2023/09/19 10:22:36;;;;;;;31.63;13.23;;;;;;;-142.57;46.22;115900.28;4999151;28;20049;-85
2023/09/19 10:25:07;;;;;;;34.78;13.98;;;;;;;-142.57;45.02;115900.28;4996191;28;20070;-86
2023/09/19 10:27:37;;;;;;;38.45;14.93;;;;;;;-142.57;46.93;115900.28;4995555;28;20064;-85
2023/09/19 10:30:07;;;;;;;29.20;14.75;;;;;;;-142.57;47.15;115900.28;4994584;28;20359;-89
2023/09/19 10:32:36;;;;;;;28.92;12.32;;;;;;;-142.57;46.29;115900.28;4996358;28;20038;-86
2023/09/19 10:35:06;;;;;;;31.40;13.82;;;;;;;-142.57;44.91;115900.28;4997731;28;20046;-85
2023/09/19 10:37:34;;;;;;;24.05;11.02;;;;;;;-142.57;45.60;115900.28;4995267;28;20054;-92
2023/09/19 10:39:59;;;;;;;26.35;12.75;;;;;;;-142.57;44.88;115900.28;4996062;28;20489;-90
2023/09/19 10:42:37;;;;;;;32.75;15.40;;;;;;;-142.57;45.62;115900.28;5004947;28;20105;-92
2023/09/19 10:45:13;;;;;;;26.85;12.05;;;;;;;-142.57;44.75;115900.28;5015180;28;20022;-90
2023/09/19 10:47:39;;;;;;;28.60;10.90;;;;;;;-142.57;45.25;115900.28;5008459;28;20043;-91
2023/09/19 10:50:21;;;;;;;27.75;11.90;;;;;;;-142.57;43.42;115900.28;5000814;28;20072;-91
2023/09/19 10:52:57;;;;;;;30.50;12.85;;;;;;;-142.57;43.66;115900.28;5002154;28;20109;-94
2023/09/19 10:55:28;;;;;;;23.25;12.13;;;;;;;-142.57;43.66;115900.28;5002923;28;20065;-88
2023/09/19 10:57:57;;;;;;;27.52;11.35;;;;;;;-142.57;42.58;115900.28;4998806;28;20076;-92
2023/09/19 11:00:28;;;;;;;;;;;;;;;-142.57;43.66;115900.28;4981772;28;20034;-91
2023/09/19 11:03:32;;;;;;;29.90;12.18;;;;;;;-142.57;43.47;115900.28;4980432;28;19929;-91